sensor_id;sensor_type;location;lat;lon;timestamp;temperature;humidity
22456;DHT22;11395;53.204;6.502;2023-01-19T00:01:41;21.40;57.70
22456;DHT22;11395;53.204;6.502;2023-01-19T00:04:07;21.30;57.70
22456;DHT22;11395;53.204;6.502;2023-01-19T00:06:33;21.30;57.80
22456;DHT22;11395;53.204;6.502;2023-01-19T00:09:00;21.30;57.90
22456;DHT22;11395;53.204;6.502;2023-01-19T00:11:26;21.20;58.00
22456;DHT22;11395;53.204;6.502;2023-01-19T00:13:52;21.20;58.00
22456;DHT22;11395;53.204;6.502;2023-01-19T00:16:19;21.10;58.10
22456;DHT22;11395;53.204;6.502;2023-01-19T00:18:49;21.10;58.10
22456;DHT22;11395;53.204;6.502;2023-01-19T00:21:16;21.10;58.20
22456;DHT22;11395;53.204;6.502;2023-01-19T00:23:43;21.00;58.30
22456;DHT22;11395;53.204;6.502;2023-01-19T00:26:14;21.00;58.30
22456;DHT22;11395;53.204;6.502;2023-01-19T00:28:42;20.90;58.30
22456;DHT22;11395;53.204;6.502;2023-01-19T00:31:09;20.90;58.40
22456;DHT22;11395;53.204;6.502;2023-01-19T00:33:35;20.90;58.50
22456;DHT22;11395;53.204;6.502;2023-01-19T00:36:03;20.80;58.50
22456;DHT22;11395;53.204;6.502;2023-01-19T00:38:29;20.80;58.50
22456;DHT22;11395;53.204;6.502;2023-01-19T00:40:55;20.70;58.50
22456;DHT22;11395;53.204;6.502;2023-01-19T00:43:21;20.70;58.60
22456;DHT22;11395;53.204;6.502;2023-01-19T00:45:48;20.70;58.70
22456;DHT22;11395;53.204;6.502;2023-01-19T00:48:14;20.60;58.70
22456;DHT22;11395;53.204;6.502;2023-01-19T00:50:40;20.60;58.70
22456;DHT22;11395;53.204;6.502;2023-01-19T00:53:06;20.50;58.80
22456;DHT22;11395;53.204;6.502;2023-01-19T00:55:33;20.50;58.80
22456;DHT22;11395;53.204;6.502;2023-01-19T00:58:00;20.50;59.00
22456;DHT22;11395;53.204;6.502;2023-01-19T01:00:27;20.50;58.80
22456;DHT22;11395;53.204;6.502;2023-01-19T01:02:54;20.50;58.90
22456;DHT22;11395;53.204;6.502;2023-01-19T01:05:20;20.40;58.90
22456;DHT22;11395;53.204;6.502;2023-01-19T01:07:46;20.40;58.80
22456;DHT22;11395;53.204;6.502;2023-01-19T01:10:17;20.40;58.90
22456;DHT22;11395;53.204;6.502;2023-01-19T01:12:43;20.30;59.00
22456;DHT22;11395;53.204;6.502;2023-01-19T01:15:11;20.30;58.80
22456;DHT22;11395;53.204;6.502;2023-01-19T01:17:38;20.30;59.00
22456;DHT22;11395;53.204;6.502;2023-01-19T01:20:30;20.20;59.00
22456;DHT22;11395;53.204;6.502;2023-01-19T01:22:58;20.20;59.00
22456;DHT22;11395;53.204;6.502;2023-01-19T01:25:26;20.20;59.20
22456;DHT22;11395;53.204;6.502;2023-01-19T01:27:53;20.20;59.00
22456;DHT22;11395;53.204;6.502;2023-01-19T01:30:20;20.10;59.00
22456;DHT22;11395;53.204;6.502;2023-01-19T01:32:46;20.10;59.20
22456;DHT22;11395;53.204;6.502;2023-01-19T01:35:13;20.10;59.00
22456;DHT22;11395;53.204;6.502;2023-01-19T01:37:40;20.10;59.20
22456;DHT22;11395;53.204;6.502;2023-01-19T01:40:09;20.10;59.10
22456;DHT22;11395;53.204;6.502;2023-01-19T01:42:36;20.00;59.10
22456;DHT22;11395;53.204;6.502;2023-01-19T01:45:04;20.00;59.00
22456;DHT22;11395;53.204;6.502;2023-01-19T01:47:44;20.00;59.10
22456;DHT22;11395;53.204;6.502;2023-01-19T01:50:21;20.00;59.30
22456;DHT22;11395;53.204;6.502;2023-01-19T01:55:27;19.90;59.40
22456;DHT22;11395;53.204;6.502;2023-01-19T01:57:59;19.90;59.40
22456;DHT22;11395;53.204;6.502;2023-01-19T02:00:26;19.80;59.40
22456;DHT22;11395;53.204;6.502;2023-01-19T02:02:53;19.80;59.50
22456;DHT22;11395;53.204;6.502;2023-01-19T02:05:34;19.70;59.60
22456;DHT22;11395;53.204;6.502;2023-01-19T02:08:09;19.70;59.60
22456;DHT22;11395;53.204;6.502;2023-01-19T02:10:55;19.70;59.70
22456;DHT22;11395;53.204;6.502;2023-01-19T02:13:42;19.60;59.70
22456;DHT22;11395;53.204;6.502;2023-01-19T02:16:10;19.60;59.80
22456;DHT22;11395;53.204;6.502;2023-01-19T02:18:36;19.60;60.00
22456;DHT22;11395;53.204;6.502;2023-01-19T02:26:38;19.50;60.00
22456;DHT22;11395;53.204;6.502;2023-01-19T02:29:10;19.40;60.00
22456;DHT22;11395;53.204;6.502;2023-01-19T02:31:37;19.40;60.00
22456;DHT22;11395;53.204;6.502;2023-01-19T02:34:06;19.40;60.00
22456;DHT22;11395;53.204;6.502;2023-01-19T02:36:43;19.30;60.20
22456;DHT22;11395;53.204;6.502;2023-01-19T02:39:10;19.30;60.20
22456;DHT22;11395;53.204;6.502;2023-01-19T02:41:41;19.30;60.20
22456;DHT22;11395;53.204;6.502;2023-01-19T02:44:09;19.30;60.40
22456;DHT22;11395;53.204;6.502;2023-01-19T02:46:37;19.20;60.30
22456;DHT22;11395;53.204;6.502;2023-01-19T02:49:03;19.20;60.20
22456;DHT22;11395;53.204;6.502;2023-01-19T02:51:29;19.20;60.30
22456;DHT22;11395;53.204;6.502;2023-01-19T02:56:32;19.10;60.30
22456;DHT22;11395;53.204;6.502;2023-01-19T03:07:15;19.10;60.50
22456;DHT22;11395;53.204;6.502;2023-01-19T03:09:56;19.00;60.30
22456;DHT22;11395;53.204;6.502;2023-01-19T03:12:37;19.00;60.30
22456;DHT22;11395;53.204;6.502;2023-01-19T03:15:17;19.00;60.30
22456;DHT22;11395;53.204;6.502;2023-01-19T03:17:46;18.90;60.30
22456;DHT22;11395;53.204;6.502;2023-01-19T03:20:17;18.90;60.40
22456;DHT22;11395;53.204;6.502;2023-01-19T03:22:48;18.90;60.60
22456;DHT22;11395;53.204;6.502;2023-01-19T03:25:17;18.90;60.70
22456;DHT22;11395;53.204;6.502;2023-01-19T03:27:44;18.80;60.70
22456;DHT22;11395;53.204;6.502;2023-01-19T03:30:14;18.80;60.70
22456;DHT22;11395;53.204;6.502;2023-01-19T03:32:48;18.80;60.70
22456;DHT22;11395;53.204;6.502;2023-01-19T03:35:19;18.80;60.80
22456;DHT22;11395;53.204;6.502;2023-01-19T03:37:47;18.70;60.70
22456;DHT22;11395;53.204;6.502;2023-01-19T03:40:16;18.80;60.90
22456;DHT22;11395;53.204;6.502;2023-01-19T03:42:43;18.70;60.80
22456;DHT22;11395;53.204;6.502;2023-01-19T03:45:11;18.70;60.90
22456;DHT22;11395;53.204;6.502;2023-01-19T03:47:38;18.70;60.90
22456;DHT22;11395;53.204;6.502;2023-01-19T03:50:08;18.70;60.70
22456;DHT22;11395;53.204;6.502;2023-01-19T03:52:36;18.70;61.00
22456;DHT22;11395;53.204;6.502;2023-01-19T03:55:04;18.70;60.50
22456;DHT22;11395;53.204;6.502;2023-01-19T03:57:31;18.70;60.70
22456;DHT22;11395;53.204;6.502;2023-01-19T03:59:57;18.80;60.50
22456;DHT22;11395;53.204;6.502;2023-01-19T04:02:23;18.80;60.50
22456;DHT22;11395;53.204;6.502;2023-01-19T04:04:49;18.90;60.90
22456;DHT22;11395;53.204;6.502;2023-01-19T04:07:16;19.00;60.00
22456;DHT22;11395;53.204;6.502;2023-01-19T04:09:42;19.10;60.00
22456;DHT22;11395;53.204;6.502;2023-01-19T04:12:08;19.20;59.80
22456;DHT22;11395;53.204;6.502;2023-01-19T04:14:34;19.40;59.70
22456;DHT22;11395;53.204;6.502;2023-01-19T04:17:01;19.40;59.60
22456;DHT22;11395;53.204;6.502;2023-01-19T04:19:27;19.60;59.40
22456;DHT22;11395;53.204;6.502;2023-01-19T04:21:53;19.60;59.20
22456;DHT22;11395;53.204;6.502;2023-01-19T04:24:20;19.70;59.00
22456;DHT22;11395;53.204;6.502;2023-01-19T04:26:46;19.80;58.90
22456;DHT22;11395;53.204;6.502;2023-01-19T04:29:15;19.90;58.80
22456;DHT22;11395;53.204;6.502;2023-01-19T04:31:42;20.00;58.80
22456;DHT22;11395;53.204;6.502;2023-01-19T04:34:08;20.00;58.70
22456;DHT22;11395;53.204;6.502;2023-01-19T04:36:35;20.00;58.60
22456;DHT22;11395;53.204;6.502;2023-01-19T04:39:01;20.00;58.50
22456;DHT22;11395;53.204;6.502;2023-01-19T04:41:27;20.10;58.40
22456;DHT22;11395;53.204;6.502;2023-01-19T04:43:53;20.10;58.30
22456;DHT22;11395;53.204;6.502;2023-01-19T04:46:19;20.20;58.20
22456;DHT22;11395;53.204;6.502;2023-01-19T04:48:45;20.20;58.20
22456;DHT22;11395;53.204;6.502;2023-01-19T04:51:12;20.30;58.10
22456;DHT22;11395;53.204;6.502;2023-01-19T04:53:38;20.30;58.00
22456;DHT22;11395;53.204;6.502;2023-01-19T04:56:04;20.40;57.90
22456;DHT22;11395;53.204;6.502;2023-01-19T04:58:30;20.50;57.90
22456;DHT22;11395;53.204;6.502;2023-01-19T05:00:57;20.60;57.70
22456;DHT22;11395;53.204;6.502;2023-01-19T05:03:23;20.70;57.60
22456;DHT22;11395;53.204;6.502;2023-01-19T05:05:49;20.80;57.40
22456;DHT22;11395;53.204;6.502;2023-01-19T05:08:15;20.90;57.20
22456;DHT22;11395;53.204;6.502;2023-01-19T05:10:41;21.00;57.10
22456;DHT22;11395;53.204;6.502;2023-01-19T05:13:07;21.10;56.90
22456;DHT22;11395;53.204;6.502;2023-01-19T05:15:34;21.20;56.80
22456;DHT22;11395;53.204;6.502;2023-01-19T05:18:00;21.30;56.60
22456;DHT22;11395;53.204;6.502;2023-01-19T05:20:26;21.40;56.40
22456;DHT22;11395;53.204;6.502;2023-01-19T05:22:52;21.60;56.20
22456;DHT22;11395;53.204;6.502;2023-01-19T05:25:19;21.70;55.90
22456;DHT22;11395;53.204;6.502;2023-01-19T05:27:45;21.80;55.80
22456;DHT22;11395;53.204;6.502;2023-01-19T05:30:12;22.00;55.60
22456;DHT22;11395;53.204;6.502;2023-01-19T05:32:39;22.10;55.50
22456;DHT22;11395;53.204;6.502;2023-01-19T05:35:06;22.30;55.10
22456;DHT22;11395;53.204;6.502;2023-01-19T05:37:32;22.40;55.10
22456;DHT22;11395;53.204;6.502;2023-01-19T05:39:58;22.60;55.00
22456;DHT22;11395;53.204;6.502;2023-01-19T05:42:24;22.70;54.70
22456;DHT22;11395;53.204;6.502;2023-01-19T05:44:51;22.80;54.60
22456;DHT22;11395;53.204;6.502;2023-01-19T05:47:17;23.00;54.30
22456;DHT22;11395;53.204;6.502;2023-01-19T05:49:43;23.10;54.30
22456;DHT22;11395;53.204;6.502;2023-01-19T05:52:10;23.20;54.20
22456;DHT22;11395;53.204;6.502;2023-01-19T05:54:36;23.10;54.00
22456;DHT22;11395;53.204;6.502;2023-01-19T05:57:05;23.40;54.00
22456;DHT22;11395;53.204;6.502;2023-01-19T05:59:32;23.50;54.10
22456;DHT22;11395;53.204;6.502;2023-01-19T06:01:58;23.60;54.10
22456;DHT22;11395;53.204;6.502;2023-01-19T06:04:25;23.70;54.40
22456;DHT22;11395;53.204;6.502;2023-01-19T06:06:51;23.70;54.20
22456;DHT22;11395;53.204;6.502;2023-01-19T06:09:18;23.80;53.80
22456;DHT22;11395;53.204;6.502;2023-01-19T06:11:44;23.80;53.80
22456;DHT22;11395;53.204;6.502;2023-01-19T06:14:11;23.80;53.80
22456;DHT22;11395;53.204;6.502;2023-01-19T06:16:37;23.90;54.10
22456;DHT22;11395;53.204;6.502;2023-01-19T06:19:04;23.90;53.80
22456;DHT22;11395;53.204;6.502;2023-01-19T06:21:30;23.90;53.80
22456;DHT22;11395;53.204;6.502;2023-01-19T06:23:56;23.90;53.70
22456;DHT22;11395;53.204;6.502;2023-01-19T06:26:22;23.90;53.50
22456;DHT22;11395;53.204;6.502;2023-01-19T06:28:50;23.80;53.50
22456;DHT22;11395;53.204;6.502;2023-01-19T06:31:16;23.80;53.50
22456;DHT22;11395;53.204;6.502;2023-01-19T06:33:42;23.80;53.50
22456;DHT22;11395;53.204;6.502;2023-01-19T06:36:09;23.70;53.40
22456;DHT22;11395;53.204;6.502;2023-01-19T06:38:35;23.70;53.60
22456;DHT22;11395;53.204;6.502;2023-01-19T06:41:01;23.70;53.70
22456;DHT22;11395;53.204;6.502;2023-01-19T06:43:28;23.70;53.80
22456;DHT22;11395;53.204;6.502;2023-01-19T06:45:54;23.70;53.70
22456;DHT22;11395;53.204;6.502;2023-01-19T06:48:21;23.70;53.60
22456;DHT22;11395;53.204;6.502;2023-01-19T06:50:48;23.80;53.50
22456;DHT22;11395;53.204;6.502;2023-01-19T06:53:15;23.80;53.20
22456;DHT22;11395;53.204;6.502;2023-01-19T06:55:45;23.90;53.30
22456;DHT22;11395;53.204;6.502;2023-01-19T06:58:11;23.90;53.30
22456;DHT22;11395;53.204;6.502;2023-01-19T07:00:38;24.00;53.20
22456;DHT22;11395;53.204;6.502;2023-01-19T07:03:06;24.00;53.30
22456;DHT22;11395;53.204;6.502;2023-01-19T07:05:33;24.00;53.20
22456;DHT22;11395;53.204;6.502;2023-01-19T07:08:00;24.10;53.30
22456;DHT22;11395;53.204;6.502;2023-01-19T07:10:27;24.10;53.60
22456;DHT22;11395;53.204;6.502;2023-01-19T07:12:55;24.10;53.50
22456;DHT22;11395;53.204;6.502;2023-01-19T07:15:22;24.10;53.40
22456;DHT22;11395;53.204;6.502;2023-01-19T07:17:48;24.10;53.30
22456;DHT22;11395;53.204;6.502;2023-01-19T07:20:14;24.10;53.10
22456;DHT22;11395;53.204;6.502;2023-01-19T07:22:42;24.00;53.00
22456;DHT22;11395;53.204;6.502;2023-01-19T07:25:10;24.00;53.80
22456;DHT22;11395;53.204;6.502;2023-01-19T07:27:36;23.90;53.10
22456;DHT22;11395;53.204;6.502;2023-01-19T07:30:03;23.90;53.10
22456;DHT22;11395;53.204;6.502;2023-01-19T07:32:29;23.90;53.20
22456;DHT22;11395;53.204;6.502;2023-01-19T07:34:56;23.80;53.10
22456;DHT22;11395;53.204;6.502;2023-01-19T07:37:22;23.80;53.40
22456;DHT22;11395;53.204;6.502;2023-01-19T07:39:48;23.70;53.40
22456;DHT22;11395;53.204;6.502;2023-01-19T07:42:14;23.70;53.60
22456;DHT22;11395;53.204;6.502;2023-01-19T07:44:41;23.60;53.70
22456;DHT22;11395;53.204;6.502;2023-01-19T07:47:07;23.60;53.80
22456;DHT22;11395;53.204;6.502;2023-01-19T07:49:36;23.60;53.90
22456;DHT22;11395;53.204;6.502;2023-01-19T07:52:02;23.50;54.00
22456;DHT22;11395;53.204;6.502;2023-01-19T07:54:28;23.60;54.20
22456;DHT22;11395;53.204;6.502;2023-01-19T07:56:54;23.60;54.10
22456;DHT22;11395;53.204;6.502;2023-01-19T07:59:21;23.70;54.30
22456;DHT22;11395;53.204;6.502;2023-01-19T08:01:47;23.70;54.20
22456;DHT22;11395;53.204;6.502;2023-01-19T08:04:13;23.70;54.30
22456;DHT22;11395;53.204;6.502;2023-01-19T08:06:39;23.80;54.20
22456;DHT22;11395;53.204;6.502;2023-01-19T08:09:09;23.80;54.20
22456;DHT22;11395;53.204;6.502;2023-01-19T08:11:36;23.90;54.10
22456;DHT22;11395;53.204;6.502;2023-01-19T08:14:03;23.90;54.00
22456;DHT22;11395;53.204;6.502;2023-01-19T08:16:29;23.90;54.00
22456;DHT22;11395;53.204;6.502;2023-01-19T08:18:56;23.90;54.00
22456;DHT22;11395;53.204;6.502;2023-01-19T08:21:22;23.90;54.00
22456;DHT22;11395;53.204;6.502;2023-01-19T08:23:52;23.90;54.00
22456;DHT22;11395;53.204;6.502;2023-01-19T08:26:19;23.90;53.90
22456;DHT22;11395;53.204;6.502;2023-01-19T08:28:46;23.90;54.00
22456;DHT22;11395;53.204;6.502;2023-01-19T08:31:12;23.90;54.00
22456;DHT22;11395;53.204;6.502;2023-01-19T08:33:38;23.80;54.10
22456;DHT22;11395;53.204;6.502;2023-01-19T08:36:04;23.80;54.10
22456;DHT22;11395;53.204;6.502;2023-01-19T08:38:31;23.80;54.20
22456;DHT22;11395;53.204;6.502;2023-01-19T08:40:57;23.80;54.00
22456;DHT22;11395;53.204;6.502;2023-01-19T08:43:23;23.80;54.00
22456;DHT22;11395;53.204;6.502;2023-01-19T08:45:51;23.70;54.00
22456;DHT22;11395;53.204;6.502;2023-01-19T08:48:19;23.70;54.00
22456;DHT22;11395;53.204;6.502;2023-01-19T08:50:48;23.70;54.00
22456;DHT22;11395;53.204;6.502;2023-01-19T08:53:15;23.70;54.10
22456;DHT22;11395;53.204;6.502;2023-01-19T08:55:41;23.60;54.10
22456;DHT22;11395;53.204;6.502;2023-01-19T08:58:08;23.60;54.20
22456;DHT22;11395;53.204;6.502;2023-01-19T09:00:36;23.60;54.30
22456;DHT22;11395;53.204;6.502;2023-01-19T09:03:05;23.60;54.40
22456;DHT22;11395;53.204;6.502;2023-01-19T09:05:33;23.60;54.30
22456;DHT22;11395;53.204;6.502;2023-01-19T09:08:03;23.70;54.40
22456;DHT22;11395;53.204;6.502;2023-01-19T09:10:30;23.70;54.40
22456;DHT22;11395;53.204;6.502;2023-01-19T09:13:01;23.70;54.30
22456;DHT22;11395;53.204;6.502;2023-01-19T09:15:31;23.80;54.30
22456;DHT22;11395;53.204;6.502;2023-01-19T09:18:01;23.80;54.20
22456;DHT22;11395;53.204;6.502;2023-01-19T09:20:27;23.80;54.20
22456;DHT22;11395;53.204;6.502;2023-01-19T09:22:59;23.90;54.00
22456;DHT22;11395;53.204;6.502;2023-01-19T09:25:26;23.90;54.00
22456;DHT22;11395;53.204;6.502;2023-01-19T09:27:52;23.90;53.90
22456;DHT22;11395;53.204;6.502;2023-01-19T09:30:18;23.90;53.80
22456;DHT22;11395;53.204;6.502;2023-01-19T09:32:45;23.90;53.70
22456;DHT22;11395;53.204;6.502;2023-01-19T09:35:11;23.90;53.70
22456;DHT22;11395;53.204;6.502;2023-01-19T09:37:38;23.90;53.70
22456;DHT22;11395;53.204;6.502;2023-01-19T09:40:05;23.90;53.60
22456;DHT22;11395;53.204;6.502;2023-01-19T09:42:33;23.90;53.60
22456;DHT22;11395;53.204;6.502;2023-01-19T09:45:12;23.80;53.60
22456;DHT22;11395;53.204;6.502;2023-01-19T09:47:40;23.80;53.60
22456;DHT22;11395;53.204;6.502;2023-01-19T09:50:23;23.80;53.60
22456;DHT22;11395;53.204;6.502;2023-01-19T09:52:56;23.80;53.70
22456;DHT22;11395;53.204;6.502;2023-01-19T09:55:26;23.80;53.60
22456;DHT22;11395;53.204;6.502;2023-01-19T09:57:53;23.80;53.50
22456;DHT22;11395;53.204;6.502;2023-01-19T10:00:19;23.80;53.40
22456;DHT22;11395;53.204;6.502;2023-01-19T10:05:48;23.80;53.40
22456;DHT22;11395;53.204;6.502;2023-01-19T10:10:54;23.80;53.50
22456;DHT22;11395;53.204;6.502;2023-01-19T10:18:48;23.80;53.80
22456;DHT22;11395;53.204;6.502;2023-01-19T10:21:20;23.90;53.90
22456;DHT22;11395;53.204;6.502;2023-01-19T10:26:41;24.00;53.80
22456;DHT22;11395;53.204;6.502;2023-01-19T10:31:47;24.10;53.70
22456;DHT22;11395;53.204;6.502;2023-01-19T10:34:14;24.20;53.50
22456;DHT22;11395;53.204;6.502;2023-01-19T10:36:45;24.30;53.50
22456;DHT22;11395;53.204;6.502;2023-01-19T10:39:15;24.30;53.40
22456;DHT22;11395;53.204;6.502;2023-01-19T10:41:52;24.40;53.30
22456;DHT22;11395;53.204;6.502;2023-01-19T10:44:27;24.40;53.30
22456;DHT22;11395;53.204;6.502;2023-01-19T10:46:56;24.40;53.20
22456;DHT22;11395;53.204;6.502;2023-01-19T10:49:25;24.40;53.20
22456;DHT22;11395;53.204;6.502;2023-01-19T10:51:52;24.40;53.20
22456;DHT22;11395;53.204;6.502;2023-01-19T10:54:20;24.40;53.20
22456;DHT22;11395;53.204;6.502;2023-01-19T10:56:52;24.40;53.20
22456;DHT22;11395;53.204;6.502;2023-01-19T10:59:37;24.40;53.20
22456;DHT22;11395;53.204;6.502;2023-01-19T11:02:22;24.30;53.20
22456;DHT22;11395;53.204;6.502;2023-01-19T11:04:53;24.30;53.10
22456;DHT22;11395;53.204;6.502;2023-01-19T11:07:27;24.30;53.20
22456;DHT22;11395;53.204;6.502;2023-01-19T11:18:06;24.20;53.20
22456;DHT22;11395;53.204;6.502;2023-01-19T11:20:53;24.20;53.20
22456;DHT22;11395;53.204;6.502;2023-01-19T11:23:27;24.20;53.20
22456;DHT22;11395;53.204;6.502;2023-01-19T11:25:57;24.20;53.20
22456;DHT22;11395;53.204;6.502;2023-01-19T11:28:33;24.20;53.20
22456;DHT22;11395;53.204;6.502;2023-01-19T11:33:52;24.10;53.30
22456;DHT22;11395;53.204;6.502;2023-01-19T11:36:27;24.00;53.90
22456;DHT22;11395;53.204;6.502;2023-01-19T11:38:59;24.00;53.40
22456;DHT22;11395;53.204;6.502;2023-01-19T11:41:32;23.90;53.30
22456;DHT22;11395;53.204;6.502;2023-01-19T11:44:15;23.90;53.80
22456;DHT22;11395;53.204;6.502;2023-01-19T11:46:44;23.90;53.50
22456;DHT22;11395;53.204;6.502;2023-01-19T11:54:27;23.80;53.70
22456;DHT22;11395;53.204;6.502;2023-01-19T11:56:57;23.70;53.70
22456;DHT22;11395;53.204;6.502;2023-01-19T11:59:23;23.70;53.80
22456;DHT22;11395;53.204;6.502;2023-01-19T12:01:58;23.70;53.80
22456;DHT22;11395;53.204;6.502;2023-01-19T12:04:32;23.70;53.80
22456;DHT22;11395;53.204;6.502;2023-01-19T12:07:03;23.60;53.80
22456;DHT22;11395;53.204;6.502;2023-01-19T12:09:38;23.60;54.00
22456;DHT22;11395;53.204;6.502;2023-01-19T12:12:27;23.60;53.90
22456;DHT22;11395;53.204;6.502;2023-01-19T12:17:42;23.60;54.00
22456;DHT22;11395;53.204;6.502;2023-01-19T12:26:24;23.40;54.20
22456;DHT22;11395;53.204;6.502;2023-01-19T12:29:04;23.30;54.50
22456;DHT22;11395;53.204;6.502;2023-01-19T12:31:31;23.20;54.60
22456;DHT22;11395;53.204;6.502;2023-01-19T12:37:01;23.10;54.90
22456;DHT22;11395;53.204;6.502;2023-01-19T12:39:29;23.20;55.10
22456;DHT22;11395;53.204;6.502;2023-01-19T12:42:16;23.20;55.10
22456;DHT22;11395;53.204;6.502;2023-01-19T12:44:44;23.20;55.10
22456;DHT22;11395;53.204;6.502;2023-01-19T12:49:43;23.40;55.00
22456;DHT22;11395;53.204;6.502;2023-01-19T12:55:58;23.50;55.00
22456;DHT22;11395;53.204;6.502;2023-01-19T12:58:26;23.50;54.90
22456;DHT22;11395;53.204;6.502;2023-01-19T13:01:15;23.50;54.90
22456;DHT22;11395;53.204;6.502;2023-01-19T13:04:04;23.50;54.80
22456;DHT22;11395;53.204;6.502;2023-01-19T13:09:33;23.50;54.70
22456;DHT22;11395;53.204;6.502;2023-01-19T13:14:39;23.50;54.60
22456;DHT22;11395;53.204;6.502;2023-01-19T13:20:18;23.40;54.70
22456;DHT22;11395;53.204;6.502;2023-01-19T13:23:18;23.40;54.80
22456;DHT22;11395;53.204;6.502;2023-01-19T13:26:12;23.30;54.80
22456;DHT22;11395;53.204;6.502;2023-01-19T13:28:49;23.30;54.90
22456;DHT22;11395;53.204;6.502;2023-01-19T13:31:17;23.20;54.90
22456;DHT22;11395;53.204;6.502;2023-01-19T13:33:50;23.20;54.90
22456;DHT22;11395;53.204;6.502;2023-01-19T13:36:36;23.30;54.90
22456;DHT22;11395;53.204;6.502;2023-01-19T13:39:31;23.20;54.80
22456;DHT22;11395;53.204;6.502;2023-01-19T13:42:05;23.20;55.00
22456;DHT22;11395;53.204;6.502;2023-01-19T13:44:53;23.10;55.00
22456;DHT22;11395;53.204;6.502;2023-01-19T13:47:30;23.10;55.40
22456;DHT22;11395;53.204;6.502;2023-01-19T13:49:59;23.10;55.50
22456;DHT22;11395;53.204;6.502;2023-01-19T13:52:27;23.20;55.50
22456;DHT22;11395;53.204;6.502;2023-01-19T13:54:58;23.20;55.60
22456;DHT22;11395;53.204;6.502;2023-01-19T13:57:42;23.30;55.60
22456;DHT22;11395;53.204;6.502;2023-01-19T14:03:00;23.40;55.70
22456;DHT22;11395;53.204;6.502;2023-01-19T14:05:35;23.40;55.60
22456;DHT22;11395;53.204;6.502;2023-01-19T14:13:23;23.40;55.30
22456;DHT22;11395;53.204;6.502;2023-01-19T14:15:56;23.50;55.30
22456;DHT22;11395;53.204;6.502;2023-01-19T14:18:28;23.40;55.20
22456;DHT22;11395;53.204;6.502;2023-01-19T14:21:00;23.40;55.30
22456;DHT22;11395;53.204;6.502;2023-01-19T14:23:47;23.40;55.10
22456;DHT22;11395;53.204;6.502;2023-01-19T14:27:05;23.30;55.10
22456;DHT22;11395;53.204;6.502;2023-01-19T14:37:31;23.30;55.40
22456;DHT22;11395;53.204;6.502;2023-01-19T14:42:51;23.20;55.60
22456;DHT22;11395;53.204;6.502;2023-01-19T14:45:29;23.20;55.70
22456;DHT22;11395;53.204;6.502;2023-01-19T14:50:33;23.20;55.90
22456;DHT22;11395;53.204;6.502;2023-01-19T14:53:03;23.20;55.90
22456;DHT22;11395;53.204;6.502;2023-01-19T14:55:42;23.20;55.90
22456;DHT22;11395;53.204;6.502;2023-01-19T14:58:14;23.30;56.00
22456;DHT22;11395;53.204;6.502;2023-01-19T15:00:41;23.40;55.90
22456;DHT22;11395;53.204;6.502;2023-01-19T15:03:08;23.40;55.80
22456;DHT22;11395;53.204;6.502;2023-01-19T15:05:36;23.50;55.70
22456;DHT22;11395;53.204;6.502;2023-01-19T15:08:03;23.60;55.60
22456;DHT22;11395;53.204;6.502;2023-01-19T15:10:30;23.60;55.40
22456;DHT22;11395;53.204;6.502;2023-01-19T15:12:56;23.70;55.50
22456;DHT22;11395;53.204;6.502;2023-01-19T15:15:31;23.70;55.30
22456;DHT22;11395;53.204;6.502;2023-01-19T15:17:59;23.70;55.40
22456;DHT22;11395;53.204;6.502;2023-01-19T15:20:27;23.70;55.30
22456;DHT22;11395;53.204;6.502;2023-01-19T15:22:53;23.70;55.40
22456;DHT22;11395;53.204;6.502;2023-01-19T15:25:21;23.70;55.30
22456;DHT22;11395;53.204;6.502;2023-01-19T15:27:50;23.70;55.20
22456;DHT22;11395;53.204;6.502;2023-01-19T15:30:19;23.70;55.20
22456;DHT22;11395;53.204;6.502;2023-01-19T15:32:46;23.60;55.20
22456;DHT22;11395;53.204;6.502;2023-01-19T15:35:21;23.60;55.20
22456;DHT22;11395;53.204;6.502;2023-01-19T15:37:48;23.50;55.20
22456;DHT22;11395;53.204;6.502;2023-01-19T15:40:17;23.50;55.30
22456;DHT22;11395;53.204;6.502;2023-01-19T15:42:44;23.40;55.30
22456;DHT22;11395;53.204;6.502;2023-01-19T15:47:52;23.30;55.20
22456;DHT22;11395;53.204;6.502;2023-01-19T15:50:18;23.30;55.30
22456;DHT22;11395;53.204;6.502;2023-01-19T15:52:45;23.20;55.30
22456;DHT22;11395;53.204;6.502;2023-01-19T15:55:11;23.20;55.40
22456;DHT22;11395;53.204;6.502;2023-01-19T15:57:40;23.10;55.30
22456;DHT22;11395;53.204;6.502;2023-01-19T16:00:08;23.10;55.60
22456;DHT22;11395;53.204;6.502;2023-01-19T16:02:38;23.00;55.60
22456;DHT22;11395;53.204;6.502;2023-01-19T16:05:05;23.10;55.70
22456;DHT22;11395;53.204;6.502;2023-01-19T16:07:32;23.10;55.70
22456;DHT22;11395;53.204;6.502;2023-01-19T16:09:59;23.10;55.80
22456;DHT22;11395;53.204;6.502;2023-01-19T16:12:27;23.10;55.80
22456;DHT22;11395;53.204;6.502;2023-01-19T16:14:53;23.20;56.50
22456;DHT22;11395;53.204;6.502;2023-01-19T16:17:19;23.20;55.90
22456;DHT22;11395;53.204;6.502;2023-01-19T16:19:45;23.30;55.90
22456;DHT22;11395;53.204;6.502;2023-01-19T16:22:12;23.40;55.80
22456;DHT22;11395;53.204;6.502;2023-01-19T16:24:39;23.40;55.60
22456;DHT22;11395;53.204;6.502;2023-01-19T16:27:05;23.50;55.60
22456;DHT22;11395;53.204;6.502;2023-01-19T16:29:33;23.60;55.60
22456;DHT22;11395;53.204;6.502;2023-01-19T16:31:59;23.60;55.50
22456;DHT22;11395;53.204;6.502;2023-01-19T16:34:25;23.70;55.40
22456;DHT22;11395;53.204;6.502;2023-01-19T16:36:51;23.70;55.30
22456;DHT22;11395;53.204;6.502;2023-01-19T16:39:17;23.70;55.20
22456;DHT22;11395;53.204;6.502;2023-01-19T16:41:44;23.70;55.20
22456;DHT22;11395;53.204;6.502;2023-01-19T16:44:11;23.70;55.10
22456;DHT22;11395;53.204;6.502;2023-01-19T16:46:40;23.70;55.00
22456;DHT22;11395;53.204;6.502;2023-01-19T16:49:15;23.70;55.00
22456;DHT22;11395;53.204;6.502;2023-01-19T16:51:42;23.70;55.10
22456;DHT22;11395;53.204;6.502;2023-01-19T16:54:17;23.60;55.00
22456;DHT22;11395;53.204;6.502;2023-01-19T16:56:44;23.60;55.00
22456;DHT22;11395;53.204;6.502;2023-01-19T16:59:12;23.60;55.10
22456;DHT22;11395;53.204;6.502;2023-01-19T17:01:39;23.50;55.00
22456;DHT22;11395;53.204;6.502;2023-01-19T17:04:05;23.50;54.90
22456;DHT22;11395;53.204;6.502;2023-01-19T17:06:32;23.40;54.80
22456;DHT22;11395;53.204;6.502;2023-01-19T17:08:58;23.40;54.80
22456;DHT22;11395;53.204;6.502;2023-01-19T17:11:26;23.30;54.80
22456;DHT22;11395;53.204;6.502;2023-01-19T17:13:57;23.30;54.60
22456;DHT22;11395;53.204;6.502;2023-01-19T17:16:26;23.30;54.70
22456;DHT22;11395;53.204;6.502;2023-01-19T17:18:53;23.20;55.70
22456;DHT22;11395;53.204;6.502;2023-01-19T17:21:19;23.20;55.90
22456;DHT22;11395;53.204;6.502;2023-01-19T17:23:47;23.10;55.90
22456;DHT22;11395;53.204;6.502;2023-01-19T17:26:14;23.10;55.90